Time;durP1;ratioP1;P1;durP2;ratioP2;P2;SDS_P1;SDS_P2;PMS_P1;PMS_P2;Temp;Humidity;BMP_temperature;BMP_pressure;BME280_temperature;BME280_humidity;BME280_pressure;Samples;Min_cycle;Max_cycle;Signal;HPM_P1;HPM_P2
2022/07/18 00:00:38;;;;;;;4.13;1.88;;;23.90;52.40;;;;;;6107302;28;80392;-63
2022/07/18 00:03:38;;;;;;;4.25;2.42;;;24.00;52.40;;;;;;6107519;28;80627;-63
2022/07/18 00:06:39;;;;;;;3.03;2.03;;;24.00;52.40;;;;;;6091421;28;81097;-62
2022/07/18 00:09:39;;;;;;;3.28;2.35;;;24.00;52.40;;;;;;6078819;28;81754;-62
2022/07/18 00:12:40;;;;;;;3.55;2.05;;;24.00;52.40;;;;;;6086952;28;81633;-62
2022/07/18 00:15:40;;;;;;;4.57;1.60;;;24.00;52.40;;;;;;6094435;28;82068;-62
2022/07/18 00:18:41;;;;;;;2.30;1.63;;;24.00;52.50;;;;;;6111095;28;81838;-63
2022/07/18 00:21:41;;;;;;;2.60;1.80;;;24.00;52.50;;;;;;6110837;28;81624;-63
2022/07/18 00:24:42;;;;;;;3.55;1.70;;;24.00;52.40;;;;;;6111522;28;80410;-62
2022/07/18 00:27:42;;;;;;;1.90;1.50;;;24.00;52.40;;;;;;6118934;28;80608;-62
2022/07/18 00:30:43;;;;;;;3.45;1.88;;;24.00;52.40;;;;;;6120206;28;81016;-62
2022/07/18 00:33:43;;;;;;;3.67;1.73;;;24.00;52.50;;;;;;6110624;28;81606;-62
2022/07/18 00:36:44;;;;;;;3.70;1.70;;;24.00;52.50;;;;;;6108112;28;80639;-62
2022/07/18 00:39:44;;;;;;;1.70;1.58;;;24.00;52.50;;;;;;6089977;28;81537;-63
2022/07/18 00:42:45;;;;;;;3.08;1.80;;;23.90;52.60;;;;;;6091981;28;80975;-63
2022/07/18 00:45:45;;;;;;;1.80;1.33;;;23.90;52.60;;;;;;6110082;28;87592;-63
2022/07/18 00:48:46;;;;;;;2.28;1.48;;;23.90;52.70;;;;;;6110841;28;81419;-62
2022/07/18 00:51:46;;;;;;;2.80;1.42;;;23.90;52.70;;;;;;6110192;28;81466;-62
2022/07/18 00:54:47;;;;;;;1.85;1.38;;;23.90;52.70;;;;;;6116719;28;80470;-62
2022/07/18 00:57:47;;;;;;;3.55;1.70;;;23.90;52.70;;;;;;6108353;28;80669;-62
2022/07/18 01:04:07;;;;;;;2.90;1.85;;;23.90;52.70;;;;;;6102662;28;80356;-61
2022/07/18 01:07:08;;;;;;;2.03;1.60;;;23.90;52.70;;;;;;6102723;28;80913;-61
2022/07/18 01:10:08;;;;;;;2.25;1.60;;;23.90;52.70;;;;;;6129440;28;80292;-61
2022/07/18 01:13:09;;;;;;;2.42;1.50;;;23.90;52.60;;;;;;6135398;28;80509;-62
2022/07/18 01:16:09;;;;;;;2.40;1.65;;;23.90;52.60;;;;;;6122250;28;80321;-62
2022/07/18 01:19:10;;;;;;;2.05;1.60;;;23.90;52.50;;;;;;6126181;28;80924;-62
2022/07/18 01:22:10;;;;;;;2.05;1.65;;;23.90;52.40;;;;;;6115949;28;80172;-62
2022/07/18 01:25:11;;;;;;;2.70;1.65;;;23.90;52.40;;;;;;6107034;28;80599;-62
2022/07/18 01:28:11;;;;;;;1.40;1.30;;;23.80;52.40;;;;;;6114634;28;80641;-63
2022/07/18 01:31:12;;;;;;;3.97;1.50;;;23.80;52.50;;;;;;6119964;28;80314;-62
2022/07/18 01:34:12;;;;;;;3.38;1.60;;;23.80;52.40;;;;;;6116156;28;82020;-61
2022/07/18 01:37:13;;;;;;;3.00;1.70;;;23.80;52.40;;;;;;6114323;28;80173;-62
2022/07/18 01:40:13;;;;;;;4.28;1.50;;;23.80;52.40;;;;;;6114485;28;80088;-63
2022/07/18 01:43:14;;;;;;;1.98;1.45;;;23.80;52.40;;;;;;6114724;28;80377;-62
2022/07/18 01:46:14;;;;;;;1.20;1.10;;;23.80;52.40;;;;;;6113685;28;80149;-62
2022/07/18 01:49:14;;;;;;;2.33;1.30;;;23.80;52.30;;;;;;6114001;28;80369;-62
2022/07/18 01:52:15;;;;;;;1.95;1.42;;;23.80;52.30;;;;;;6113789;28;80288;-61
2022/07/18 01:55:15;;;;;;;4.38;1.75;;;23.80;52.30;;;;;;6114137;28;81479;-62
2022/07/18 01:58:16;;;;;;;3.17;1.40;;;23.80;52.20;;;;;;6108128;28;80331;-61
2022/07/18 02:01:16;;;;;;;1.42;1.10;;;23.80;52.20;;;;;;6113865;28;80428;-62
2022/07/18 02:04:17;;;;;;;3.65;1.67;;;23.80;52.20;;;;;;6104587;28;82370;-62
2022/07/18 02:07:17;;;;;;;3.45;1.75;;;23.80;52.10;;;;;;6107941;28;80934;-62
2022/07/18 02:10:18;;;;;;;2.65;1.52;;;23.80;52.10;;;;;;6113850;28;80511;-62
2022/07/18 02:13:20;;;;;;;1.83;1.27;;;23.80;52.20;;;;;;6108947;28;80884;-62
2022/07/18 02:16:20;;;;;;;1.88;1.48;;;23.80;52.20;;;;;;6110599;28;81086;-63
2022/07/18 02:19:21;;;;;;;2.58;1.50;;;23.80;52.30;;;;;;6112408;28;81817;-62
2022/07/18 02:22:21;;;;;;;2.85;1.42;;;23.80;52.30;;;;;;6121215;28;82932;-62
2022/07/18 02:25:22;;;;;;;1.92;1.65;;;23.80;52.30;;;;;;6112069;28;81396;-62
2022/07/18 02:28:22;;;;;;;2.80;1.38;;;23.80;52.30;;;;;;6113780;28;80540;-62
2022/07/18 02:31:23;;;;;;;2.97;1.67;;;23.80;52.40;;;;;;6119801;28;80138;-61
2022/07/18 02:34:23;;;;;;;3.40;1.63;;;23.80;52.40;;;;;;6120943;28;80692;-62
2022/07/18 02:37:24;;;;;;;1.27;1.17;;;23.80;52.50;;;;;;6113912;28;81045;-61
2022/07/18 02:40:24;;;;;;;3.80;1.60;;;23.80;52.50;;;;;;6113299;28;80301;-62
2022/07/18 02:43:25;;;;;;;2.47;1.52;;;23.80;52.40;;;;;;6112943;28;80611;-62
2022/07/18 02:46:25;;;;;;;3.00;1.60;;;23.80;52.50;;;;;;6106830;28;80775;-62
2022/07/18 02:49:29;;;;;;;3.78;1.35;;;23.80;52.40;;;;;;6109002;28;80296;-62
2022/07/18 02:52:29;;;;;;;2.67;1.33;;;23.80;52.50;;;;;;6110745;28;80340;-62
2022/07/18 02:55:30;;;;;;;2.72;1.70;;;23.80;52.50;;;;;;6114542;28;80928;-62
2022/07/18 02:58:32;;;;;;;1.70;1.17;;;23.70;52.50;;;;;;6113172;28;80310;-62
2022/07/18 03:01:32;;;;;;;3.28;1.48;;;23.80;52.40;;;;;;6110581;28;80528;-62
2022/07/18 03:04:33;;;;;;;1.42;1.30;;;23.70;52.40;;;;;;6105189;28;81476;-62
2022/07/18 03:07:33;;;;;;;1.52;1.17;;;23.80;52.50;;;;;;6110822;28;82250;-61
2022/07/18 03:10:34;;;;;;;3.00;1.80;;;23.70;52.50;;;;;;6112667;28;80642;-62
2022/07/18 03:13:34;;;;;;;2.08;1.52;;;23.70;52.40;;;;;;6110774;28;81024;-62
2022/07/18 03:16:34;;;;;;;3.25;1.48;;;23.80;52.40;;;;;;6110640;28;80279;-61
2022/07/18 03:19:35;;;;;;;1.20;1.10;;;23.70;53.00;;;;;;6112838;28;80463;-61
2022/07/18 03:22:35;;;;;;;1.13;1.10;;;23.70;52.40;;;;;;6110252;28;80694;-61
2022/07/18 03:25:36;;;;;;;3.33;1.30;;;23.70;52.40;;;;;;6112391;28;80182;-61
2022/07/18 03:28:36;;;;;;;2.58;1.65;;;23.70;52.30;;;;;;6110991;28;80401;-61
2022/07/18 03:31:37;;;;;;;2.33;1.48;;;23.70;52.30;;;;;;6110520;28;81270;-62
2022/07/18 03:34:37;;;;;;;1.77;1.45;;;23.80;52.30;;;;;;6110898;28;80139;-62
2022/07/18 03:37:38;;;;;;;2.55;1.50;;;23.70;52.40;;;;;;6109161;28;80862;-62
2022/07/18 03:40:38;;;;;;;2.58;1.80;;;23.70;52.40;;;;;;6109837;28;80525;-62
2022/07/18 03:43:39;;;;;;;1.70;1.58;;;23.70;52.40;;;;;;6111491;28;80893;-62
2022/07/18 03:46:39;;;;;;;2.00;1.30;;;23.70;52.40;;;;;;6107920;28;80602;-64
2022/07/18 03:49:40;;;;;;;2.08;1.40;;;23.80;52.40;;;;;;6094875;28;80630;-65
2022/07/18 03:52:41;;;;;;;2.03;1.55;;;23.70;52.50;;;;;;6103420;28;80575;-65
2022/07/18 03:55:42;;;;;;;1.83;1.33;;;23.70;52.50;;;;;;6110679;28;80840;-66
2022/07/18 03:58:42;;;;;;;2.50;1.42;;;23.70;52.50;;;;;;6110066;28;80602;-65
2022/07/18 04:01:43;;;;;;;1.63;1.35;;;23.70;52.40;;;;;;6109947;28;80772;-64
2022/07/18 04:04:43;;;;;;;1.85;1.33;;;23.70;52.30;;;;;;6106378;28;80831;-62
2022/07/18 04:07:44;;;;;;;3.10;1.92;;;23.70;52.30;;;;;;6084950;28;80880;-70
2022/07/18 04:10:44;;;;;;;2.28;1.40;;;23.70;52.20;;;;;;6103824;28;81226;-61
2022/07/18 04:13:45;;;;;;;2.67;1.63;;;23.70;52.20;;;;;;6108068;28;80357;-61
2022/07/18 04:16:46;;;;;;;5.15;1.55;;;23.70;52.30;;;;;;6108568;28;80565;-61
2022/07/18 04:19:46;;;;;;;7.82;1.67;;;23.70;52.50;;;;;;6112766;28;80298;-62
2022/07/18 04:22:47;;;;;;;2.72;2.00;;;23.80;52.60;;;;;;6109851;28;81183;-62
2022/07/18 04:25:47;;;;;;;8.07;2.15;;;23.80;52.60;;;;;;6106736;28;81395;-61
2022/07/18 04:28:48;;;;;;;1.83;1.63;;;23.80;52.40;;;;;;6107270;28;81047;-62
2022/07/18 04:31:48;;;;;;;5.75;1.80;;;23.80;52.60;;;;;;6109688;28;80561;-63
2022/07/18 04:34:49;;;;;;;4.63;1.90;;;23.80;52.50;;;;;;6106991;28;81442;-62
2022/07/18 04:37:49;;;;;;;3.45;2.00;;;23.80;52.60;;;;;;6106260;28;80255;-62
2022/07/18 04:40:50;;;;;;;2.60;1.67;;;23.80;52.80;;;;;;6103609;28;81449;-62
2022/07/18 04:43:50;;;;;;;2.90;1.83;;;23.80;53.30;;;;;;6107717;28;80626;-66
2022/07/18 04:46:51;;;;;;;5.68;2.75;;;23.90;53.60;;;;;;6095787;28;80636;-62
2022/07/18 04:49:51;;;;;;;14.10;2.83;;;23.90;53.70;;;;;;6095507;28;80391;-62
2022/07/18 04:52:52;;;;;;;8.63;3.00;;;23.90;53.50;;;;;;6119398;28;81805;-63
2022/07/18 04:55:52;;;;;;;5.20;2.70;;;23.90;53.60;;;;;;6095494;28;80406;-63
2022/07/18 04:58:53;;;;;;;4.75;2.75;;;23.90;54.00;;;;;;6094906;28;80605;-62
2022/07/18 05:01:53;;;;;;;8.63;2.80;;;23.90;54.20;;;;;;6086656;28;80433;-70
2022/07/18 05:04:53;;;;;;;11.68;2.88;;;24.00;54.40;;;;;;6102055;28;81414;-69
2022/07/18 05:07:54;;;;;;;6.75;2.72;;;23.90;53.90;;;;;;6104483;28;80524;-69
2022/07/18 05:10:54;;;;;;;16.55;3.58;;;23.80;52.80;;;;;;6131693;28;80647;-67
2022/07/18 05:13:55;;;;;;;11.75;3.15;;;23.70;52.40;;;;;;6108957;28;80448;-66
2022/07/18 05:16:56;;;;;;;15.07;3.45;;;23.50;51.80;;;;;;6113635;28;80356;-77
2022/07/18 05:19:56;;;;;;;5.55;3.30;;;23.30;51.60;;;;;;6085917;28;80839;-63
2022/07/18 05:22:57;;;;;;;9.07;2.97;;;23.30;51.70;;;;;;6095707;28;80569;-65
2022/07/18 05:25:57;;;;;;;17.27;3.30;;;23.30;51.60;;;;;;6104370;28;80994;-65
2022/07/18 05:28:58;;;;;;;11.30;2.83;;;23.30;51.70;;;;;;6106399;28;80125;-63
2022/07/18 05:31:58;;;;;;;5.53;2.72;;;23.40;51.70;;;;;;6102368;28;81715;-63
2022/07/18 05:34:59;;;;;;;4.80;2.45;;;23.40;51.60;;;;;;6110935;28;80565;-62
2022/07/18 05:37:59;;;;;;;3.78;2.53;;;23.40;51.50;;;;;;6084221;28;81147;-63
2022/07/18 05:41:00;;;;;;;4.97;2.85;;;23.30;51.60;;;;;;6078991;28;81696;-63
2022/07/18 05:44:00;;;;;;;5.55;2.47;;;23.30;51.70;;;;;;6105227;28;80482;-71
2022/07/18 05:47:01;;;;;;;5.95;2.50;;;23.20;51.50;;;;;;6109596;28;80046;-64
2022/07/18 05:50:01;;;;;;;6.88;1.90;;;23.10;51.30;;;;;;6109645;28;80531;-72
2022/07/18 05:53:02;;;;;;;4.28;2.28;;;23.00;51.10;;;;;;6105310;28;80948;-63
2022/07/18 05:56:02;;;;;;;11.02;2.30;;;22.90;51.50;;;;;;6100367;28;81753;-62
2022/07/18 05:59:04;;;;;;;4.22;2.13;;;22.80;51.90;;;;;;6103754;28;80441;-63
2022/07/18 06:02:04;;;;;;;3.80;2.20;;;22.80;52.20;;;;;;6112428;28;80526;-60
2022/07/18 06:05:05;;;;;;;5.50;2.47;;;22.80;51.80;;;;;;6107852;28;81436;-61
2022/07/18 06:08:05;;;;;;;4.60;2.35;;;22.70;51.70;;;;;;6098746;28;80335;-59
2022/07/18 06:11:07;;;;;;;3.35;2.05;;;22.90;51.60;;;;;;6112656;28;80706;-61
2022/07/18 06:14:07;;;;;;;6.82;2.45;;;22.80;51.60;;;;;;6113567;28;80706;-60
2022/07/18 06:17:08;;;;;;;4.95;2.67;;;22.80;51.70;;;;;;6122038;28;80403;-60
2022/07/18 06:20:08;;;;;;;4.43;2.25;;;22.70;51.40;;;;;;6117085;28;81615;-61
2022/07/18 06:23:09;;;;;;;4.65;2.58;;;22.60;51.30;;;;;;6101268;28;80596;-61
2022/07/18 06:26:09;;;;;;;6.03;2.65;;;22.70;51.30;;;;;;6121884;28;80426;-60
2022/07/18 06:29:10;;;;;;;4.68;2.33;;;22.60;51.50;;;;;;6104101;28;80346;-60
2022/07/18 06:32:11;;;;;;;6.78;2.55;;;22.70;51.40;;;;;;6109169;28;81089;-60
2022/07/18 06:35:11;;;;;;;13.05;5.78;;;22.70;51.20;;;;;;6117101;28;80359;-61
2022/07/18 06:38:12;;;;;;;7.93;4.43;;;22.50;51.50;;;;;;6112448;28;80873;-60
2022/07/18 06:41:12;;;;;;;11.82;4.65;;;22.60;51.50;;;;;;6112443;28;80504;-61
2022/07/18 06:44:13;;;;;;;10.20;3.30;;;22.80;51.40;;;;;;6112378;28;80455;-61
2022/07/18 06:47:13;;;;;;;8.25;3.40;;;22.70;51.60;;;;;;6112816;28;80499;-60
2022/07/18 06:50:14;;;;;;;7.68;2.80;;;22.60;51.70;;;;;;6112541;28;80622;-60
2022/07/18 06:53:14;;;;;;;7.28;2.53;;;22.10;52.10;;;;;;6115914;28;82104;-61
2022/07/18 06:56:15;;;;;;;6.80;3.08;;;22.00;53.20;;;;;;6133967;28;80186;-61
2022/07/18 06:59:15;;;;;;;4.60;2.53;;;22.00;52.70;;;;;;6105286;28;80309;-61
2022/07/18 07:02:16;;;;;;;4.85;2.72;;;21.90;52.80;;;;;;6111598;28;80442;-61
2022/07/18 07:05:17;;;;;;;8.60;4.70;;;22.00;52.40;;;;;;6116067;28;80704;-61
2022/07/18 07:08:17;;;;;;;10.63;4.10;;;22.20;52.10;;;;;;6116409;28;80265;-60
2022/07/18 07:11:18;;;;;;;10.00;3.90;;;22.40;51.80;;;;;;6123348;28;86772;-59
2022/07/18 07:14:18;;;;;;;7.93;2.85;;;22.60;51.50;;;;;;6112447;28;80258;-62
2022/07/18 07:17:19;;;;;;;6.95;2.40;;;22.60;51.20;;;;;;6118786;28;80631;-62
2022/07/18 07:20:21;;;;;;;7.95;3.10;;;22.50;51.30;;;;;;6114726;28;84293;-62
2022/07/18 07:23:21;;;;;;;6.00;2.58;;;22.10;51.40;;;;;;6109803;28;80755;-62
2022/07/18 07:26:22;;;;;;;5.90;2.50;;;22.20;51.70;;;;;;6108643;28;80789;-63
2022/07/18 07:29:22;;;;;;;10.57;4.18;;;22.40;51.50;;;;;;6103541;28;80694;-70
2022/07/18 07:32:22;;;;;;;7.03;3.85;;;22.20;51.80;;;;;;6105232;28;81570;-72
2022/07/18 07:35:23;;;;;;;9.88;3.33;;;22.40;51.90;;;;;;6110936;28;80239;-60
2022/07/18 07:38:27;;;;;;;9.82;4.00;;;22.50;51.40;;;;;;6111766;28;80996;-61
2022/07/18 07:41:28;;;;;;;7.63;2.70;;;22.60;51.30;;;;;;6109961;28;85314;-65
2022/07/18 07:44:28;;;;;;;9.98;3.08;;;22.60;51.20;;;;;;6108129;28;81356;-62
2022/07/18 07:47:29;;;;;;;4.72;2.47;;;22.70;51.20;;;;;;6108887;28;81057;-61
2022/07/18 07:50:29;;;;;;;4.95;2.38;;;22.60;51.50;;;;;;6111992;28;81256;-61
2022/07/18 07:53:30;;;;;;;15.55;3.05;;;22.80;51.40;;;;;;6109155;28;81462;-64
2022/07/18 07:56:30;;;;;;;5.45;2.22;;;23.00;51.00;;;;;;6108171;28;80439;-70
2022/07/18 07:59:31;;;;;;;6.15;2.65;;;23.10;51.30;;;;;;6105971;28;80471;-66
2022/07/18 08:02:32;;;;;;;12.77;3.08;;;23.10;51.20;;;;;;6111763;28;82042;-61
2022/07/18 08:05:32;;;;;;;14.15;2.33;;;23.20;51.20;;;;;;6111615;28;80631;-61
2022/07/18 08:08:33;;;;;;;10.65;2.75;;;23.20;50.60;;;;;;6101577;28;82102;-61
2022/07/18 08:11:33;;;;;;;7.35;2.28;;;23.20;50.20;;;;;;6106601;28;81150;-62
2022/07/18 08:14:37;;;;;;;5.88;2.38;;;23.30;49.90;;;;;;6106607;28;81282;-61
2022/07/18 08:17:38;;;;;;;14.48;2.63;;;23.30;49.20;;;;;;6096523;28;80557;-60
2022/07/18 08:20:39;;;;;;;13.63;2.38;;;23.40;48.40;;;;;;6104508;28;80370;-61
2022/07/18 08:23:39;;;;;;;6.65;2.38;;;23.40;48.00;;;;;;6111043;28;81516;-60
2022/07/18 08:26:40;;;;;;;11.85;2.38;;;23.30;48.00;;;;;;6111407;28;80435;-65
2022/07/18 08:29:40;;;;;;;6.28;2.95;;;23.40;48.10;;;;;;6112124;28;80747;-67
2022/07/18 08:32:40;;;;;;;2.58;1.85;;;23.40;47.70;;;;;;6103081;28;81392;-63
2022/07/18 08:35:41;;;;;;;8.02;2.13;;;23.50;47.50;;;;;;6108787;28;80019;-67
2022/07/18 08:38:41;;;;;;;6.10;2.08;;;23.50;46.20;;;;;;6111101;28;80418;-60
2022/07/18 08:41:42;;;;;;;5.68;2.13;;;23.60;47.20;;;;;;6096515;28;80507;-69
2022/07/18 08:44:42;;;;;;;7.10;2.53;;;23.60;46.90;;;;;;6108469;28;81764;-60
2022/07/18 08:47:43;;;;;;;8.85;2.28;;;23.60;46.50;;;;;;6110695;28;80271;-60
2022/07/18 08:50:44;;;;;;;4.20;2.20;;;23.70;47.30;;;;;;6103447;28;80647;-60
2022/07/18 08:53:44;;;;;;;9.18;2.33;;;23.70;47.00;;;;;;6111192;28;80069;-61
2022/07/18 08:56:45;;;;;;;16.35;2.40;;;23.70;46.40;;;;;;6110789;28;80397;-62
2022/07/18 08:59:45;;;;;;;7.28;2.28;;;23.60;45.90;;;;;;6111994;28;80521;-62
2022/07/18 09:02:46;;;;;;;5.13;2.58;;;23.70;46.60;;;;;;6108654;28;80555;-62
2022/07/18 09:05:46;;;;;;;4.60;2.33;;;23.70;46.00;;;;;;6107011;28;80283;-61
2022/07/18 09:08:47;;;;;;;5.68;2.25;;;23.70;45.90;;;;;;6120644;28;80401;-61
2022/07/18 09:11:47;;;;;;;10.07;3.17;;;23.70;46.20;;;;;;6114006;28;80464;-66
2022/07/18 09:14:47;;;;;;;9.70;3.10;;;23.70;45.90;;;;;;6109110;28;80261;-61
2022/07/18 09:17:48;;;;;;;6.57;2.35;;;23.70;46.80;;;;;;6110418;28;80154;-61
2022/07/18 09:20:48;;;;;;;19.02;3.10;;;23.70;46.50;;;;;;6110759;28;80549;-61
2022/07/18 09:23:49;;;;;;;6.47;2.80;;;23.70;46.30;;;;;;6113348;28;80713;-64
2022/07/18 09:26:50;;;;;;;7.25;2.75;;;23.80;46.60;;;;;;6118873;28;80863;-61
2022/07/18 09:29:51;;;;;;;7.75;2.67;;;23.80;47.20;;;;;;6114155;28;83367;-61
2022/07/18 09:32:51;;;;;;;7.03;3.17;;;23.90;46.80;;;;;;6113239;28;80252;-61
2022/07/18 09:35:52;;;;;;;4.75;2.40;;;23.90;46.80;;;;;;6114530;28;80021;-61
2022/07/18 09:38:52;;;;;;;3.90;2.45;;;24.00;46.80;;;;;;6114418;28;80466;-61
2022/07/18 09:41:53;;;;;;;7.22;2.72;;;24.10;46.30;;;;;;6113836;28;81109;-62
2022/07/18 09:44:53;;;;;;;5.90;2.95;;;24.10;46.60;;;;;;6117189;28;80348;-61
2022/07/18 09:47:54;;;;;;;7.43;2.80;;;24.20;45.50;;;;;;6112428;28;86810;-61
2022/07/18 09:50:55;;;;;;;5.60;2.92;;;24.30;46.50;;;;;;6113426;28;80297;-61
2022/07/18 09:53:57;;;;;;;3.75;2.28;;;24.30;46.10;;;;;;6121962;28;80514;-61
2022/07/18 09:56:58;;;;;;;4.10;2.35;;;24.30;45.30;;;;;;6111028;28;80183;-61
2022/07/18 09:59:59;;;;;;;6.80;2.80;;;24.30;45.00;;;;;;6109853;28;80551;-61
2022/07/18 10:02:59;;;;;;;6.00;2.45;;;24.40;45.40;;;;;;6112336;28;80721;-68
2022/07/18 10:06:00;;;;;;;6.63;2.58;;;24.40;45.40;;;;;;6111505;28;81757;-62
2022/07/18 10:09:00;;;;;;;17.00;2.50;;;24.50;46.70;;;;;;6122603;28;81885;-61
2022/07/18 10:12:01;;;;;;;6.72;2.30;;;24.40;46.60;;;;;;6132040;28;80810;-62
2022/07/18 10:15:01;;;;;;;5.90;1.80;;;24.40;46.60;;;;;;6118857;28;80482;-60
2022/07/18 10:18:02;;;;;;;6.15;2.72;;;24.30;46.60;;;;;;6119573;28;80641;-61
2022/07/18 10:21:02;;;;;;;7.80;2.53;;;24.20;45.80;;;;;;6104257;28;80605;-61
2022/07/18 10:24:03;;;;;;;5.13;2.70;;;24.20;46.70;;;;;;6114923;28;80343;-61
2022/07/18 10:27:03;;;;;;;7.13;2.90;;;24.30;47.50;;;;;;6113277;28;80824;-61
2022/07/18 10:30:04;;;;;;;6.28;2.33;;;24.40;46.90;;;;;;6109705;28;81079;-61
2022/07/18 10:33:04;;;;;;;4.15;2.38;;;24.30;45.90;;;;;;6105267;28;81298;-61
2022/07/18 10:36:05;;;;;;;4.40;2.17;;;24.20;45.30;;;;;;6108926;28;82617;-60
2022/07/18 10:39:08;;;;;;;6.72;2.08;;;24.20;45.80;;;;;;6096356;28;80529;-61
2022/07/18 10:42:08;;;;;;;8.23;3.30;;;24.30;46.20;;;;;;6111596;28;81164;-60
2022/07/18 10:45:09;;;;;;;7.50;3.65;;;24.40;46.80;;;;;;6110810;28;81304;-61
2022/07/18 10:48:09;;;;;;;6.25;3.28;;;24.50;47.00;;;;;;6111628;28;82570;-62
2022/07/18 10:51:10;;;;;;;10.55;2.80;;;24.40;46.40;;;;;;6110114;28;80969;-61
2022/07/18 10:54:11;;;;;;;7.22;2.13;;;24.30;45.90;;;;;;6106119;28;81570;-61
2022/07/18 10:57:12;;;;;;;6.35;2.65;;;24.30;45.50;;;;;;6105919;28;81366;-61
2022/07/18 11:00:13;;;;;;;4.30;2.38;;;24.40;46.70;;;;;;6113253;28;80656;-60
2022/07/18 11:03:13;;;;;;;7.18;2.15;;;24.40;46.40;;;;;;6113697;28;80496;-60
2022/07/18 11:06:14;;;;;;;7.20;2.40;;;24.50;46.10;;;;;;6110541;28;81025;-62
2022/07/18 11:09:14;;;;;;;7.03;2.38;;;24.60;46.20;;;;;;6111887;28;80126;-61
2022/07/18 11:12:15;;;;;;;5.22;2.53;;;24.40;45.60;;;;;;6112038;28;80877;-60
2022/07/18 11:15:15;;;;;;;3.63;2.70;;;24.50;46.00;;;;;;6112079;28;80398;-64
2022/07/18 11:18:16;;;;;;;5.05;2.85;;;24.60;46.00;;;;;;6112507;28;80302;-63
2022/07/18 11:21:16;;;;;;;6.20;2.38;;;24.70;46.00;;;;;;6112075;28;81749;-64
2022/07/18 11:24:17;;;;;;;7.35;2.50;;;24.70;45.90;;;;;;6108462;28;80841;-62
2022/07/18 11:27:17;;;;;;;6.90;2.65;;;24.60;45.70;;;;;;6111726;28;80406;-62
2022/07/18 11:30:18;;;;;;;7.25;2.63;;;24.50;45.50;;;;;;6099121;28;81902;-63
2022/07/18 11:33:18;;;;;;;6.90;2.90;;;24.50;45.40;;;;;;6114638;28;81022;-64
2022/07/18 11:36:19;;;;;;;4.32;2.50;;;24.60;46.20;;;;;;6111421;28;80574;-61
2022/07/18 11:39:19;;;;;;;8.88;2.13;;;24.40;45.20;;;;;;6109716;28;80863;-62
2022/07/18 11:42:20;;;;;;;6.57;2.30;;;24.40;45.30;;;;;;6106861;28;80492;-62
2022/07/18 11:45:20;;;;;;;3.80;2.22;;;24.60;46.00;;;;;;6102816;28;83543;-61
2022/07/18 11:48:21;;;;;;;3.67;2.28;;;24.60;46.30;;;;;;6110908;28;82285;-61
2022/07/18 11:51:22;;;;;;;2.70;1.90;;;24.70;46.30;;;;;;6111202;28;80390;-61
2022/07/18 11:54:23;;;;;;;6.43;2.70;;;24.60;45.70;;;;;;6110783;28;80785;-59
2022/07/18 11:57:23;;;;;;;5.32;2.50;;;24.60;46.20;;;;;;6111888;28;80341;-59
2022/07/18 12:00:24;;;;;;;5.43;2.50;;;24.70;46.60;;;;;;6110842;28;81234;-58
2022/07/18 12:03:24;;;;;;;4.20;2.00;;;24.70;46.40;;;;;;6111408;28;80503;-60
2022/07/18 12:06:25;;;;;;;10.10;2.92;;;24.80;46.40;;;;;;6106436;28;80539;-61
2022/07/18 12:09:25;;;;;;;6.43;2.05;;;24.80;45.80;;;;;;6107877;28;80570;-59
2022/07/18 12:12:26;;;;;;;3.38;2.20;;;24.80;45.70;;;;;;6102459;28;80630;-66
2022/07/18 12:15:26;;;;;;;8.20;2.50;;;24.90;46.40;;;;;;6109309;28;80473;-62
2022/07/18 12:18:27;;;;;;;16.25;6.55;;;24.90;46.50;;;;;;6110369;28;80547;-65
2022/07/18 12:21:27;;;;;;;15.75;5.35;;;24.90;46.00;;;;;;6104893;28;80518;-65
2022/07/18 12:24:28;;;;;;;6.28;3.67;;;24.90;46.20;;;;;;6110569;28;81399;-65
2022/07/18 12:27:28;;;;;;;9.32;3.13;;;25.00;45.80;;;;;;6109675;28;80333;-67
2022/07/18 12:30:28;;;;;;;7.72;2.50;;;25.00;45.60;;;;;;6110042;28;80511;-66
2022/07/18 12:33:29;;;;;;;10.40;2.95;;;25.00;45.90;;;;;;6110460;28;80553;-66
2022/07/18 12:36:29;;;;;;;3.85;2.20;;;25.10;45.80;;;;;;6110430;28;81185;-65
2022/07/18 12:39:30;;;;;;;7.65;3.10;;;25.20;46.30;;;;;;6111335;28;80508;-68
2022/07/18 12:42:30;;;;;;;4.50;2.53;;;25.20;46.20;;;;;;6107733;28;80942;-66
2022/07/18 12:45:31;;;;;;;3.03;2.20;;;25.20;45.40;;;;;;6106518;28;80261;-66
2022/07/18 12:48:31;;;;;;;11.57;6.47;;;25.20;45.70;;;;;;6106367;28;80428;-66
2022/07/18 12:51:32;;;;;;;4.72;3.45;;;25.20;45.40;;;;;;6106415;28;80565;-65
2022/07/18 12:54:32;;;;;;;12.73;3.58;;;25.30;45.80;;;;;;6105554;28;80797;-65
2022/07/18 12:57:33;;;;;;;5.93;2.35;;;25.30;45.70;;;;;;6096582;28;80381;-65
2022/07/18 13:00:33;;;;;;;3.67;2.30;;;25.30;45.40;;;;;;6109901;28;81277;-67
2022/07/18 13:03:34;;;;;;;6.25;2.67;;;25.40;45.80;;;;;;6110471;28;81114;-70
2022/07/18 13:06:34;;;;;;;5.88;3.20;;;25.40;45.50;;;;;;6104299;28;80340;-61
2022/07/18 13:09:35;;;;;;;4.32;2.47;;;25.40;45.70;;;;;;6107106;28;80340;-61
2022/07/18 13:12:35;;;;;;;6.30;2.60;;;25.30;45.60;;;;;;6113572;28;80812;-61
2022/07/18 13:15:36;;;;;;;4.75;2.75;;;25.30;45.80;;;;;;6114798;28;80037;-61
2022/07/18 13:18:36;;;;;;;2.97;2.30;;;25.30;45.60;;;;;;6111309;28;80477;-61
2022/07/18 13:21:37;;;;;;;4.65;2.03;;;25.20;45.10;;;;;;6108035;28;80583;-61
2022/07/18 13:24:37;;;;;;;5.82;2.30;;;25.10;45.00;;;;;;6114326;28;80441;-61
2022/07/18 13:27:38;;;;;;;5.85;2.33;;;25.10;45.70;;;;;;6117840;28;80392;-61
2022/07/18 13:30:38;;;;;;;4.15;2.70;;;25.10;46.10;;;;;;6119165;28;80484;-61
2022/07/18 13:33:39;;;;;;;5.32;2.78;;;25.10;46.20;;;;;;6120455;28;80445;-66
2022/07/18 13:36:39;;;;;;;4.07;2.45;;;25.10;46.20;;;;;;6109144;28;80839;-62
2022/07/18 13:39:40;;;;;;;7.32;2.55;;;25.10;47.00;;;;;;6108473;28;80417;-62
2022/07/18 13:42:40;;;;;;;11.73;2.50;;;25.10;47.30;;;;;;6106824;28;82652;-62
2022/07/18 13:45:41;;;;;;;10.27;2.58;;;25.10;47.30;;;;;;6114213;28;80642;-62
2022/07/18 13:48:41;;;;;;;9.60;2.10;;;25.00;47.30;;;;;;6101724;28;81109;-61
2022/07/18 13:51:41;;;;;;;5.20;2.72;;;25.00;46.30;;;;;;6093653;28;80142;-61
2022/07/18 13:54:42;;;;;;;3.08;1.98;;;25.00;46.60;;;;;;6109181;28;80848;-62
2022/07/18 13:57:42;;;;;;;7.50;2.70;;;25.00;46.40;;;;;;6118335;28;80412;-62
2022/07/18 14:00:43;;;;;;;7.18;2.25;;;25.00;46.40;;;;;;6098535;28;80823;-62
2022/07/18 14:03:43;;;;;;;8.38;2.08;;;25.00;46.30;;;;;;6100646;28;80798;-61
2022/07/18 14:06:44;;;;;;;3.05;1.95;;;25.00;46.60;;;;;;6108086;28;80910;-62
2022/07/18 14:09:44;;;;;;;3.50;1.90;;;25.00;46.80;;;;;;6094865;28;80913;-61
2022/07/18 14:12:45;;;;;;;4.40;2.13;;;25.00;46.70;;;;;;6094386;28;80817;-62
2022/07/18 14:15:45;;;;;;;4.15;2.33;;;25.00;46.70;;;;;;6092940;28;81569;-62
2022/07/18 14:18:46;;;;;;;3.95;1.98;;;25.00;46.80;;;;;;6098652;28;80183;-61
2022/07/18 14:21:46;;;;;;;2.50;2.15;;;25.00;46.90;;;;;;6110948;28;80819;-62
2022/07/18 14:24:47;;;;;;;3.75;1.83;;;25.00;46.70;;;;;;6100034;28;81065;-61
2022/07/18 14:27:47;;;;;;;2.95;2.00;;;25.00;46.70;;;;;;6097534;28;80418;-61
2022/07/18 14:30:48;;;;;;;6.72;2.22;;;25.00;46.60;;;;;;6093949;28;80785;-62
2022/07/18 14:33:48;;;;;;;6.82;2.10;;;25.00;46.90;;;;;;6099208;28;81974;-62
2022/07/18 14:36:49;;;;;;;4.78;2.50;;;25.00;46.80;;;;;;6093418;28;81054;-62
2022/07/18 14:39:49;;;;;;;4.63;1.92;;;25.10;47.00;;;;;;6092971;28;80996;-62
2022/07/18 14:42:50;;;;;;;3.28;2.20;;;25.10;47.00;;;;;;6109156;28;81032;-62
2022/07/18 14:45:51;;;;;;;4.10;2.13;;;25.10;46.90;;;;;;6111181;28;80448;-63
2022/07/18 14:48:52;;;;;;;6.00;2.17;;;25.10;47.00;;;;;;6094314;28;80665;-62
2022/07/18 14:51:52;;;;;;;6.05;2.47;;;25.20;46.80;;;;;;6097448;28;80543;-62
2022/07/18 14:54:53;;;;;;;5.90;2.17;;;25.20;47.00;;;;;;6113108;28;80958;-62
2022/07/18 14:57:53;;;;;;;3.38;1.90;;;25.20;46.50;;;;;;6112654;28;80401;-62
2022/07/18 15:00:54;;;;;;;10.25;2.45;;;25.20;46.10;;;;;;6111902;28;80515;-62
2022/07/18 15:03:54;;;;;;;10.15;2.00;;;25.20;46.40;;;;;;6110006;28;80431;-61
2022/07/18 15:06:55;;;;;;;5.65;2.30;;;25.20;46.20;;;;;;6110550;28;81456;-61
2022/07/18 15:09:55;;;;;;;5.72;2.03;;;25.20;46.50;;;;;;6112084;28;81457;-62
2022/07/18 15:12:56;;;;;;;3.42;2.05;;;25.20;46.40;;;;;;6112138;28;83929;-61
2022/07/18 15:15:56;;;;;;;5.40;1.98;;;25.20;46.50;;;;;;6111587;28;81685;-61
2022/07/18 15:18:57;;;;;;;4.35;1.85;;;25.10;46.50;;;;;;6108614;28;81512;-61
2022/07/18 15:21:57;;;;;;;5.53;2.47;;;25.10;46.80;;;;;;6096019;28;81402;-61
2022/07/18 15:24:57;;;;;;;4.25;1.88;;;25.10;46.70;;;;;;6100382;28;80909;-62
2022/07/18 15:27:58;;;;;;;3.20;1.92;;;25.20;47.10;;;;;;6109422;28;80410;-62
2022/07/18 15:30:59;;;;;;;7.65;2.47;;;25.10;47.00;;;;;;6107465;28;81066;-62
2022/07/18 15:33:59;;;;;;;6.10;2.10;;;25.10;47.10;;;;;;6098373;28;80990;-61
2022/07/18 15:37:00;;;;;;;2.78;1.92;;;25.10;47.10;;;;;;6112219;28;80315;-61
2022/07/18 15:40:00;;;;;;;5.10;2.35;;;25.10;47.20;;;;;;6102019;28;80187;-62